Time;durP1;ratioP1;P1;durP2;ratioP2;P2;SDS_P1;SDS_P2;PMS_P1;PMS_P2;Temp;Humidity;BMP_temperature;BMP_pressure;BME280_temperature;BME280_humidity;BME280_pressure;Samples;Min_cycle;Max_cycle;Signal;HPM_P1;HPM_P2
2021/10/06 00:00:27;;;;;;;2.73;2.20;;;23.50;56.10;;;;;;6223540;23;20378;-83
2021/10/06 00:02:53;;;;;;;2.23;1.20;;;23.40;55.40;;;;;;6247902;23;20386;-83
2021/10/06 00:05:23;;;;;;;2.27;1.50;;;23.40;55.30;;;;;;6274963;23;20369;-83
2021/10/06 00:07:49;;;;;;;2.30;1.43;;;23.40;55.30;;;;;;6248623;23;20193;-83
2021/10/06 00:10:15;;;;;;;2.37;1.60;;;23.40;55.20;;;;;;6248666;23;20436;-83
2021/10/06 00:12:44;;;;;;;3.40;1.50;;;23.40;55.10;;;;;;6274705;22;20392;-83
2021/10/06 00:15:12;;;;;;;2.13;1.20;;;23.40;55.10;;;;;;6248848;22;20445;-83
2021/10/06 00:17:41;;;;;;;2.37;1.40;;;23.40;55.10;;;;;;6248875;23;20396;-83
2021/10/06 00:20:09;;;;;;;2.13;1.60;;;23.40;55.00;;;;;;6247986;23;20716;-83
2021/10/06 00:22:38;;;;;;;2.33;1.20;;;23.30;54.90;;;;;;6273834;23;20373;-83
2021/10/06 00:25:07;;;;;;;3.30;1.50;;;23.30;54.80;;;;;;6273744;23;20361;-83
2021/10/06 00:27:36;;;;;;;2.43;1.80;;;23.30;54.80;;;;;;6247363;23;20408;-83
2021/10/06 00:30:06;;;;;;;1.70;1.50;;;23.30;54.70;;;;;;6247370;23;20385;-83
2021/10/06 00:32:37;;;;;;;2.20;1.17;;;23.30;54.70;;;;;;6248847;23;20416;-83
2021/10/06 00:35:05;;;;;;;2.23;1.07;;;23.30;54.70;;;;;;6274349;22;20924;-83
2021/10/06 00:37:33;;;;;;;3.33;1.30;;;23.30;54.60;;;;;;6248532;23;20393;-83
2021/10/06 00:40:09;;;;;;;3.97;1.20;;;23.20;54.50;;;;;;6243231;23;20381;-85
2021/10/06 00:42:39;;;;;;;3.47;1.33;;;23.20;54.50;;;;;;6238099;23;20444;-85
2021/10/06 00:45:08;;;;;;;2.57;1.20;;;23.20;54.40;;;;;;6238677;23;20378;-85
2021/10/06 00:47:35;;;;;;;3.47;1.70;;;23.20;54.40;;;;;;6264869;23;20377;-85
2021/10/06 00:50:03;;;;;;;2.10;1.20;;;23.20;54.40;;;;;;6237784;23;20377;-84
2021/10/06 00:52:31;;;;;;;3.80;1.60;;;23.20;54.30;;;;;;6237601;23;20385;-85
2021/10/06 00:54:57;;;;;;;2.47;1.20;;;23.20;54.30;;;;;;6238028;23;20424;-85
2021/10/06 00:57:22;;;;;;;1.60;1.10;;;23.20;54.30;;;;;;6264644;23;20366;-85
2021/10/06 00:59:48;;;;;;;2.70;1.50;;;23.20;54.20;;;;;;6264591;23;20381;-85
2021/10/06 01:02:17;;;;;;;2.03;1.20;;;23.20;54.20;;;;;;6239073;23;20604;-85
2021/10/06 01:04:45;;;;;;;1.30;0.90;;;23.20;54.10;;;;;;6239153;23;20393;-85
2021/10/06 01:07:13;;;;;;;2.30;1.10;;;23.10;54.00;;;;;;6237875;23;20377;-85
2021/10/06 01:09:42;;;;;;;3.10;1.37;;;23.10;54.00;;;;;;6238804;23;20469;-85
2021/10/06 01:12:10;;;;;;;2.30;1.93;;;23.10;54.00;;;;;;6238009;23;20377;-85
2021/10/06 01:14:37;;;;;;;1.47;1.00;;;23.10;53.90;;;;;;6237748;23;20427;-85
2021/10/06 01:17:03;;;;;;;2.13;1.17;;;23.10;53.80;;;;;;6238052;23;20380;-85
2021/10/06 01:19:30;;;;;;;1.50;1.20;;;23.10;53.70;;;;;;6237727;23;20720;-85
2021/10/06 01:21:59;;;;;;;1.53;1.00;;;23.10;53.70;;;;;;6238376;23;20377;-85
2021/10/06 01:24:28;;;;;;;2.13;1.10;;;23.00;53.60;;;;;;6237451;23;20412;-84
2021/10/06 01:26:55;;;;;;;3.20;1.17;;;23.00;53.50;;;;;;6237262;23;20389;-84
2021/10/06 01:29:21;;;;;;;3.20;2.50;;;23.00;53.50;;;;;;6236995;23;20704;-85
2021/10/06 01:31:48;;;;;;;1.70;1.10;;;23.00;53.50;;;;;;6236875;23;20862;-84
2021/10/06 01:34:16;;;;;;;2.23;1.10;;;23.00;53.50;;;;;;6264961;23;20824;-85
2021/10/06 01:36:50;;;;;;;2.07;1.10;;;23.00;53.50;;;;;;6237349;23;20381;-85
2021/10/06 01:39:17;;;;;;;2.03;1.13;;;23.00;53.50;;;;;;6238437;23;20379;-85
2021/10/06 01:41:43;;;;;;;1.60;1.00;;;22.90;53.30;;;;;;6238241;23;20437;-85
2021/10/06 01:44:19;;;;;;;1.30;0.90;;;23.00;53.30;;;;;;6265435;23;20369;-85
2021/10/06 01:46:45;;;;;;;1.50;1.00;;;22.90;53.30;;;;;;6237169;23;20377;-85
2021/10/06 01:49:14;;;;;;;2.60;1.13;;;22.90;53.20;;;;;;6238347;23;20374;-85
2021/10/06 01:51:44;;;;;;;4.40;1.33;;;22.90;53.20;;;;;;6237584;23;20439;-84
2021/10/06 01:54:11;;;;;;;1.57;0.90;;;22.90;53.20;;;;;;6237269;23;20373;-84
2021/10/06 01:56:40;;;;;;;1.87;1.00;;;22.90;53.20;;;;;;6237998;23;20366;-84
2021/10/06 01:59:09;;;;;;;3.13;1.10;;;22.90;53.20;;;;;;6238804;23;20388;-85
2021/10/06 02:01:35;;;;;;;1.10;0.90;;;22.90;53.10;;;;;;6239020;23;20381;-83
2021/10/06 02:04:03;;;;;;;2.90;1.00;;;22.90;53.10;;;;;;6244100;23;20392;-83
2021/10/06 02:06:29;;;;;;;2.30;0.90;;;22.90;53.10;;;;;;6244156;23;20181;-83
2021/10/06 02:09:00;;;;;;;3.33;1.17;;;22.90;52.90;;;;;;6244773;23;20393;-83
2021/10/06 02:11:28;;;;;;;2.30;1.03;;;22.80;52.70;;;;;;6245741;23;20365;-83
2021/10/06 02:13:54;;;;;;;1.47;0.90;;;22.80;52.80;;;;;;6245736;23;20388;-83
2021/10/06 02:19:44;;;;;;;1.50;1.10;;;22.90;52.80;;;;;;6265505;23;20134;-85
2021/10/06 02:22:10;;;;;;;3.23;1.07;;;22.80;52.80;;;;;;6237081;23;20381;-83
2021/10/06 02:24:35;;;;;;;1.30;1.00;;;22.80;52.80;;;;;;6236669;23;20448;-83
2021/10/06 02:27:01;;;;;;;3.93;1.07;;;22.80;52.80;;;;;;6236466;23;20381;-83
2021/10/06 02:29:29;;;;;;;1.60;0.90;;;22.80;52.70;;;;;;6236505;23;20165;-83
2021/10/06 02:31:55;;;;;;;4.03;1.33;;;22.80;52.70;;;;;;6236460;23;20233;-83
2021/10/06 02:34:21;;;;;;;2.33;0.80;;;22.80;52.70;;;;;;6263090;23;20492;-83
2021/10/06 02:36:47;;;;;;;1.97;1.20;;;22.80;52.60;;;;;;6236883;23;20154;-84
2021/10/06 02:39:13;;;;;;;2.70;1.10;;;22.80;52.60;;;;;;6235973;23;20154;-83
2021/10/06 02:41:38;;;;;;;1.20;0.70;;;22.70;52.50;;;;;;6236248;23;20373;-83
2021/10/06 02:44:05;;;;;;;1.33;0.77;;;22.70;52.50;;;;;;6262451;23;20733;-83
2021/10/06 02:46:31;;;;;;;2.27;0.90;;;22.70;52.40;;;;;;6263334;23;20146;-83
2021/10/06 02:49:00;;;;;;;1.50;1.10;;;22.70;52.40;;;;;;6235389;23;20475;-84
2021/10/06 02:51:26;;;;;;;1.03;0.80;;;22.70;52.40;;;;;;6236659;23;20146;-84
2021/10/06 02:53:51;;;;;;;4.17;1.30;;;22.70;52.30;;;;;;6262609;23;20408;-84
2021/10/06 02:59:40;;;;;;;2.90;1.20;;;22.70;52.30;;;;;;6264147;23;20634;-85
2021/10/06 03:02:06;;;;;;;1.77;1.00;;;22.60;52.30;;;;;;6238470;23;20377;-85
2021/10/06 03:04:32;;;;;;;1.67;0.97;;;22.60;52.30;;;;;;6238040;23;20748;-85
2021/10/06 03:07:03;;;;;;;1.40;0.90;;;22.70;52.40;;;;;;6213016;23;20385;-85
2021/10/06 03:09:29;;;;;;;1.10;0.90;;;22.70;52.30;;;;;;6264507;23;20395;-84
2021/10/06 03:12:01;;;;;;;1.73;1.07;;;22.60;52.20;;;;;;6237370;23;20381;-84
2021/10/06 03:14:27;;;;;;;2.70;0.83;;;22.70;52.30;;;;;;6235976;23;20178;-83
2021/10/06 03:16:53;;;;;;;1.93;1.00;;;22.60;52.20;;;;;;6236359;23;20378;-84
2021/10/06 03:19:19;;;;;;;2.70;1.00;;;22.60;52.20;;;;;;6236521;23;20442;-83
2021/10/06 03:21:45;;;;;;;2.27;1.00;;;22.60;52.20;;;;;;6235822;23;20464;-83
2021/10/06 03:24:11;;;;;;;1.20;0.90;;;22.60;52.20;;;;;;6236575;23;20213;-83
2021/10/06 03:26:37;;;;;;;1.73;0.90;;;22.60;52.10;;;;;;6262106;23;20377;-83
2021/10/06 03:29:03;;;;;;;2.10;0.97;;;22.60;52.00;;;;;;6264759;23;20933;-83
2021/10/06 03:31:28;;;;;;;1.83;1.27;;;22.60;52.10;;;;;;6264443;23;20369;-83
2021/10/06 03:33:57;;;;;;;1.50;0.90;;;22.60;52.10;;;;;;6264801;23;20401;-83
2021/10/06 03:36:31;;;;;;;2.13;0.90;;;22.60;52.00;;;;;;6237905;23;20198;-83
2021/10/06 03:39:05;;;;;;;2.50;1.17;;;22.60;52.00;;;;;;6264947;23;20436;-83
2021/10/06 03:41:31;;;;;;;2.13;1.10;;;22.60;52.00;;;;;;6265222;23;20361;-83
2021/10/06 03:43:57;;;;;;;1.77;0.90;;;22.60;52.00;;;;;;6238369;23;20392;-83
2021/10/06 03:46:23;;;;;;;1.50;0.90;;;22.60;52.00;;;;;;6238007;23;20533;-83
2021/10/06 03:48:51;;;;;;;3.00;1.13;;;22.60;51.90;;;;;;6238365;23;20211;-83
2021/10/06 03:51:18;;;;;;;1.47;1.10;;;22.50;51.90;;;;;;6238591;23;20396;-83
2021/10/06 03:53:43;;;;;;;1.33;0.90;;;22.60;51.90;;;;;;6237293;23;20377;-83
2021/10/06 03:56:09;;;;;;;1.80;0.90;;;22.50;51.80;;;;;;6237390;23;20417;-83
2021/10/06 03:58:35;;;;;;;1.50;0.90;;;22.50;51.80;;;;;;6264642;23;20153;-83
2021/10/06 04:01:01;;;;;;;1.43;0.90;;;22.50;51.80;;;;;;6238652;23;20154;-83
2021/10/06 04:03:27;;;;;;;1.47;0.80;;;22.50;51.80;;;;;;6238248;23;20480;-83
2021/10/06 04:05:53;;;;;;;2.07;1.20;;;22.50;51.80;;;;;;6238419;23;20409;-82
2021/10/06 04:11:48;;;;;;;2.80;1.00;;;22.50;51.80;;;;;;6263619;23;20400;-83
2021/10/06 04:14:14;;;;;;;2.90;1.20;;;22.40;51.80;;;;;;6236584;23;20385;-83
2021/10/06 04:16:40;;;;;;;1.57;0.90;;;22.50;51.90;;;;;;6237082;23;20380;-83
2021/10/06 04:19:08;;;;;;;1.77;0.90;;;22.50;52.00;;;;;;6253140;23;20161;-83
2021/10/06 04:21:34;;;;;;;2.50;1.07;;;22.50;52.10;;;;;;6236763;23;20441;-83
2021/10/06 04:24:00;;;;;;;3.40;1.17;;;22.50;52.20;;;;;;6235613;23;20154;-82
2021/10/06 04:26:29;;;;;;;3.33;1.00;;;22.50;52.20;;;;;;6236981;23;20440;-84
2021/10/06 04:28:57;;;;;;;1.30;1.00;;;22.50;52.20;;;;;;6262695;23;20456;-83
2021/10/06 04:31:23;;;;;;;2.47;1.20;;;22.50;52.30;;;;;;6235904;23;20749;-83
2021/10/06 04:33:48;;;;;;;2.50;1.00;;;22.50;52.40;;;;;;6235456;23;20384;-83
2021/10/06 04:36:15;;;;;;;1.80;1.00;;;22.50;52.40;;;;;;6234954;23;20178;-84
2021/10/06 04:38:41;;;;;;;1.67;1.20;;;22.60;52.60;;;;;;6263093;23;20169;-84
2021/10/06 04:41:08;;;;;;;2.50;0.90;;;22.60;52.60;;;;;;6237279;23;20445;-84
2021/10/06 04:43:33;;;;;;;1.23;0.83;;;22.60;52.70;;;;;;6236879;23;20146;-84
2021/10/06 04:45:59;;;;;;;4.13;0.90;;;22.60;52.70;;;;;;6236882;23;20388;-84
2021/10/06 04:48:27;;;;;;;2.57;1.30;;;22.60;52.70;;;;;;6236910;23;20215;-84
2021/10/06 04:50:53;;;;;;;1.50;1.13;;;22.60;52.70;;;;;;6236131;23;20492;-84
2021/10/06 04:53:20;;;;;;;2.67;1.00;;;22.60;52.80;;;;;;6237293;23;20413;-84
2021/10/06 04:55:48;;;;;;;2.37;1.00;;;22.60;52.90;;;;;;6235553;23;20471;-84
2021/10/06 04:58:14;;;;;;;3.73;1.33;;;22.70;52.90;;;;;;6236180;23;20382;-84
2021/10/06 05:00:40;;;;;;;1.90;1.07;;;22.60;52.90;;;;;;6235506;23;20440;-84
2021/10/06 05:03:13;;;;;;;1.60;1.00;;;22.70;53.00;;;;;;6235434;23;20385;-84
2021/10/06 05:05:40;;;;;;;2.07;0.90;;;22.70;53.00;;;;;;6235901;23;20143;-84
2021/10/06 05:08:07;;;;;;;1.50;0.80;;;22.70;53.10;;;;;;6262958;23;20372;-83
2021/10/06 05:10:35;;;;;;;1.67;0.90;;;22.70;53.10;;;;;;6262309;23;20370;-83
2021/10/06 05:13:01;;;;;;;2.00;1.10;;;22.70;53.20;;;;;;6209185;23;20420;-82
2021/10/06 05:15:30;;;;;;;1.40;1.10;;;22.70;53.10;;;;;;6234109;23;20899;-82
2021/10/06 05:17:56;;;;;;;1.73;1.03;;;22.70;53.10;;;;;;6260467;23;20393;-82
2021/10/06 05:20:22;;;;;;;3.03;1.23;;;22.70;53.10;;;;;;6259841;23;20377;-82
2021/10/06 05:22:47;;;;;;;1.27;1.00;;;22.70;53.20;;;;;;6232460;23;20381;-83
2021/10/06 05:25:13;;;;;;;1.80;1.10;;;22.70;53.10;;;;;;6259776;23;20157;-83
2021/10/06 05:27:39;;;;;;;2.13;1.20;;;22.70;53.10;;;;;;6260595;23;20143;-83
2021/10/06 05:30:12;;;;;;;2.07;1.30;;;22.80;53.10;;;;;;6233917;23;20150;-82
2021/10/06 05:32:38;;;;;;;2.30;1.03;;;22.80;53.10;;;;;;6234496;23;20165;-83
2021/10/06 05:35:05;;;;;;;2.40;1.40;;;22.70;53.50;;;;;;6234660;23;20416;-82
2021/10/06 05:37:30;;;;;;;2.63;1.33;;;22.70;53.00;;;;;;6232685;23;20754;-83
2021/10/06 05:39:56;;;;;;;1.40;0.93;;;22.70;52.90;;;;;;6260454;23;20437;-83
2021/10/06 05:42:22;;;;;;;2.80;1.00;;;22.70;52.90;;;;;;6260317;23;20199;-83
2021/10/06 05:44:48;;;;;;;1.80;1.30;;;22.80;53.00;;;;;;6259727;23;20153;-83
2021/10/06 05:47:14;;;;;;;1.60;1.10;;;22.70;52.90;;;;;;6233884;23;20382;-83
2021/10/06 05:49:40;;;;;;;2.00;1.23;;;22.80;53.00;;;;;;6235593;23;20157;-83
2021/10/06 05:52:06;;;;;;;2.77;1.00;;;22.80;53.00;;;;;;6235643;23;20392;-83
2021/10/06 05:54:32;;;;;;;2.50;1.00;;;22.80;53.00;;;;;;6235847;23;20178;-83
2021/10/06 05:56:57;;;;;;;1.80;0.93;;;22.80;52.90;;;;;;6236040;23;20373;-83
2021/10/06 05:59:24;;;;;;;1.63;1.17;;;22.70;52.90;;;;;;6235832;23;20185;-83
2021/10/06 06:01:50;;;;;;;3.40;1.10;;;22.70;52.90;;;;;;6235733;23;20155;-83
2021/10/06 06:04:17;;;;;;;1.83;1.30;;;22.80;52.90;;;;;;6236647;23;20444;-83
2021/10/06 06:06:44;;;;;;;2.23;0.90;;;22.70;52.90;;;;;;6263696;23;20143;-83
2021/10/06 06:09:12;;;;;;;2.33;1.17;;;22.70;52.90;;;;;;6235862;23;20441;-83
2021/10/06 06:21:45;;;;;;;2.50;1.00;;;22.70;53.00;;;;;;6262860;23;20437;-83
2021/10/06 06:24:10;;;;;;;2.13;0.97;;;22.70;53.10;;;;;;6234946;23;20412;-83
2021/10/06 06:26:36;;;;;;;1.93;0.93;;;22.70;53.10;;;;;;6261850;23;20373;-82
2021/10/06 06:29:03;;;;;;;7.37;1.40;;;22.70;53.10;;;;;;6234567;23;20597;-83
2021/10/06 06:31:29;;;;;;;2.77;0.80;;;22.70;53.00;;;;;;6234773;23;20381;-83
2021/10/06 06:33:55;;;;;;;1.73;1.10;;;22.70;53.00;;;;;;6235564;23;20378;-83
2021/10/06 06:36:22;;;;;;;6.50;1.10;;;22.70;53.00;;;;;;6235173;23;20420;-83
2021/10/06 06:38:48;;;;;;;1.80;1.00;;;22.80;53.10;;;;;;6235078;23;20228;-83
2021/10/06 06:41:14;;;;;;;1.70;1.00;;;22.70;53.00;;;;;;6235038;23;20378;-83
2021/10/06 06:43:43;;;;;;;4.43;1.60;;;22.80;53.10;;;;;;6235482;23;20466;-83
2021/10/06 06:46:12;;;;;;;1.93;1.10;;;22.70;53.00;;;;;;6235230;23;20384;-83
2021/10/06 06:48:38;;;;;;;1.60;1.00;;;22.80;53.60;;;;;;6210984;23;20393;-82
2021/10/06 06:51:04;;;;;;;2.07;1.40;;;22.80;53.10;;;;;;6236075;23;20428;-82
2021/10/06 06:53:36;;;;;;;2.23;1.13;;;22.70;52.90;;;;;;6234759;23;20177;-82
2021/10/06 06:56:02;;;;;;;3.00;1.00;;;22.80;53.00;;;;;;6235050;23;20413;-82
2021/10/06 07:05:13;;;;;;;1.70;1.07;;;22.80;53.00;;;;;;6263742;23;20344;-82
2021/10/06 07:07:38;;;;;;;2.03;1.23;;;22.70;53.00;;;;;;6263096;23;20405;-82
2021/10/06 07:10:05;;;;;;;2.43;1.00;;;22.70;53.10;;;;;;6236579;23;20431;-82
2021/10/06 07:12:31;;;;;;;2.20;1.00;;;22.80;53.10;;;;;;6236705;23;20177;-82
2021/10/06 07:14:58;;;;;;;1.50;1.07;;;22.70;53.00;;;;;;6262723;23;20424;-83
2021/10/06 07:17:29;;;;;;;1.57;0.90;;;22.70;53.00;;;;;;6236543;23;20380;-83
2021/10/06 07:19:55;;;;;;;2.33;1.00;;;22.80;53.10;;;;;;6236583;23;20373;-82
2021/10/06 07:22:20;;;;;;;2.43;1.10;;;22.80;53.00;;;;;;6236649;23;20444;-83
2021/10/06 07:24:46;;;;;;;1.70;1.00;;;22.80;53.00;;;;;;6236227;23;20158;-83
2021/10/06 07:27:13;;;;;;;1.97;1.00;;;22.80;53.00;;;;;;6262943;23;20242;-83
2021/10/06 07:29:40;;;;;;;1.73;1.23;;;22.80;53.00;;;;;;6235795;23;20376;-83
2021/10/06 07:32:06;;;;;;;2.03;1.07;;;22.80;53.00;;;;;;6236497;23;20388;-83
2021/10/06 07:34:33;;;;;;;1.50;1.00;;;22.80;53.00;;;;;;6236309;23;20448;-83
2021/10/06 07:37:02;;;;;;;1.13;0.80;;;22.80;52.90;;;;;;6237361;23;20423;-83
2021/10/06 07:39:30;;;;;;;2.00;0.97;;;22.80;52.90;;;;;;6236944;23;20437;-83
2021/10/06 07:41:56;;;;;;;1.57;1.10;;;22.80;52.90;;;;;;6236572;23;20385;-83
2021/10/06 07:44:22;;;;;;;2.23;1.10;;;22.80;52.80;;;;;;6236532;23;20369;-83
2021/10/06 07:46:49;;;;;;;1.13;0.90;;;22.80;52.80;;;;;;6237035;23;20868;-82
2021/10/06 07:49:17;;;;;;;1.13;0.83;;;22.80;52.90;;;;;;6237406;23;20377;-83
2021/10/06 07:51:43;;;;;;;1.60;0.90;;;22.80;52.90;;;;;;6236849;23;20389;-83
2021/10/06 07:54:09;;;;;;;3.73;2.40;;;22.80;52.90;;;;;;6236291;23;20377;-83
2021/10/06 07:59:57;;;;;;;2.00;0.90;;;22.80;52.80;;;;;;6263451;23;20137;-83
2021/10/06 08:02:26;;;;;;;1.93;0.97;;;22.80;53.00;;;;;;6236816;23;20393;-83
2021/10/06 08:04:55;;;;;;;2.97;1.00;;;22.80;53.00;;;;;;6236304;23;20382;-83
2021/10/06 08:07:20;;;;;;;2.10;1.00;;;22.80;52.90;;;;;;6236855;23;20408;-83
2021/10/06 08:09:46;;;;;;;1.67;1.10;;;22.80;52.90;;;;;;6236597;23;20370;-83
2021/10/06 08:15:41;;;;;;;3.00;1.60;;;22.80;52.80;;;;;;6262734;23;20181;-82
2021/10/06 08:18:07;;;;;;;2.70;1.30;;;22.80;52.90;;;;;;6236792;23;20400;-82
2021/10/06 08:20:33;;;;;;;2.50;1.17;;;22.80;52.90;;;;;;6236108;23;20387;-83
2021/10/06 08:23:00;;;;;;;1.10;0.90;;;22.80;52.80;;;;;;6263936;23;20369;-82
2021/10/06 08:25:26;;;;;;;2.67;1.27;;;22.80;52.80;;;;;;6236245;23;20154;-81
2021/10/06 08:27:54;;;;;;;4.00;1.40;;;22.80;52.80;;;;;;6235870;23;20384;-82
2021/10/06 08:30:21;;;;;;;1.80;0.93;;;22.80;52.80;;;;;;6236247;23;20393;-82
2021/10/06 08:32:47;;;;;;;3.20;1.10;;;22.80;52.70;;;;;;6235141;23;20381;-82
2021/10/06 08:35:13;;;;;;;3.63;1.30;;;22.80;52.70;;;;;;6235764;23;20444;-82
2021/10/06 08:37:39;;;;;;;4.10;1.00;;;22.80;52.70;;;;;;6235954;23;20480;-83
2021/10/06 08:40:06;;;;;;;1.87;1.13;;;22.80;52.70;;;;;;6235370;23;20694;-82
2021/10/06 08:42:32;;;;;;;1.10;0.93;;;22.80;52.60;;;;;;6234982;23;20540;-83
2021/10/06 08:45:08;;;;;;;1.67;1.17;;;22.80;52.50;;;;;;6235102;23;20385;-83
2021/10/06 08:47:41;;;;;;;2.80;1.30;;;22.80;52.50;;;;;;6236890;23;20528;-82
2021/10/06 08:50:13;;;;;;;2.00;1.50;;;22.80;52.40;;;;;;6235885;23;20407;-82
2021/10/06 08:52:57;;;;;;;2.50;1.37;;;22.80;52.50;;;;;;6235323;23;20408;-82
2021/10/06 08:55:29;;;;;;;2.73;1.20;;;22.80;52.40;;;;;;6234725;23;20471;-83
2021/10/06 08:57:59;;;;;;;2.77;1.00;;;22.80;52.60;;;;;;6235246;23;20373;-83
2021/10/06 09:00:30;;;;;;;2.73;1.00;;;22.80;52.60;;;;;;6235366;23;20912;-83
2021/10/06 09:03:05;;;;;;;1.60;0.90;;;22.80;52.50;;;;;;6236828;23;20707;-82
2021/10/06 09:05:31;;;;;;;1.70;0.80;;;22.80;52.50;;;;;;6236917;23;20388;-82
2021/10/06 09:08:04;;;;;;;2.67;1.30;;;22.80;52.50;;;;;;6236086;23;20385;-83
2021/10/06 09:10:35;;;;;;;3.10;1.17;;;22.80;52.40;;;;;;6235441;23;20143;-83
2021/10/06 09:13:07;;;;;;;2.20;1.00;;;22.80;52.40;;;;;;6236393;23;20431;-83
2021/10/06 09:15:44;;;;;;;3.00;1.30;;;22.80;52.30;;;;;;6235467;23;20444;-82
2021/10/06 09:18:18;;;;;;;3.63;1.40;;;22.80;52.30;;;;;;6235434;23;20822;-83
2021/10/06 09:20:50;;;;;;;2.90;1.30;;;22.80;52.00;;;;;;6260628;23;20360;-83
2021/10/06 09:23:18;;;;;;;3.47;1.33;;;22.80;51.90;;;;;;6238634;23;20855;-83
2021/10/06 09:25:55;;;;;;;2.67;1.20;;;22.80;51.70;;;;;;6264847;23;20382;-84
2021/10/06 09:28:30;;;;;;;2.93;1.30;;;22.80;51.80;;;;;;6239437;23;20389;-85
2021/10/06 09:31:18;;;;;;;2.80;1.20;;;22.80;51.80;;;;;;6239581;23;20388;-84
2021/10/06 09:33:56;;;;;;;2.40;1.43;;;22.90;51.80;;;;;;6239398;23;20408;-84
2021/10/06 09:36:31;;;;;;;1.93;0.97;;;22.90;51.80;;;;;;6263654;23;20498;-84
2021/10/06 09:39:16;;;;;;;1.77;1.10;;;22.90;51.60;;;;;;6239712;23;20917;-84
2021/10/06 09:41:47;;;;;;;2.50;0.90;;;23.00;51.70;;;;;;6239417;23;20433;-84
2021/10/06 09:44:26;;;;;;;1.20;1.00;;;22.90;51.60;;;;;;6239116;23;20366;-84
2021/10/06 09:47:02;;;;;;;5.60;1.30;;;23.00;51.70;;;;;;6239531;23;20377;-84
2021/10/06 09:49:36;;;;;;;2.40;1.43;;;23.00;51.70;;;;;;6240335;23;20424;-84
2021/10/06 09:52:16;;;;;;;5.03;1.30;;;23.00;51.60;;;;;;6241721;23;20416;-84
2021/10/06 09:55:08;;;;;;;2.37;1.30;;;23.10;51.70;;;;;;6241025;23;20476;-84
2021/10/06 09:57:37;;;;;;;1.97;1.00;;;23.10;51.60;;;;;;6240090;23;20369;-84
2021/10/06 10:00:31;;;;;;;2.67;1.57;;;23.10;51.70;;;;;;6241366;23;20404;-84
2021/10/06 10:03:02;;;;;;;2.10;1.20;;;23.10;51.60;;;;;;6214091;23;20408;-84
2021/10/06 10:05:28;;;;;;;2.10;0.90;;;23.10;51.60;;;;;;6240458;23;20375;-85
2021/10/06 10:07:56;;;;;;;1.43;1.23;;;23.10;51.50;;;;;;6240818;23;20377;-84
2021/10/06 10:10:22;;;;;;;2.60;1.20;;;23.10;51.40;;;;;;6241349;23;20381;-84
2021/10/06 10:12:54;;;;;;;3.40;1.00;;;23.10;51.40;;;;;;6267024;23;20392;-84
2021/10/06 10:15:55;;;;;;;1.93;1.13;;;23.20;51.40;;;;;;6216456;23;20417;-84
2021/10/06 10:18:21;;;;;;;1.20;0.90;;;23.20;51.40;;;;;;6238145;23;20381;-84
2021/10/06 10:20:50;;;;;;;2.90;1.23;;;23.20;51.40;;;;;;6241540;23;20416;-84
2021/10/06 10:23:17;;;;;;;1.60;0.97;;;23.20;51.40;;;;;;6240840;23;20373;-84
2021/10/06 10:25:52;;;;;;;1.53;1.10;;;23.20;51.40;;;;;;6191394;23;20385;-84
2021/10/06 10:28:28;;;;;;;5.23;1.20;;;23.30;51.50;;;;;;6241466;23;20875;-84
2021/10/06 10:30:59;;;;;;;5.17;1.30;;;23.30;51.50;;;;;;6240767;23;20376;-84
2021/10/06 10:33:49;;;;;;;2.07;1.30;;;23.30;51.40;;;;;;6261920;23;20421;-82
2021/10/06 10:36:34;;;;;;;2.57;1.00;;;23.30;51.40;;;;;;6263159;23;20424;-81
2021/10/06 10:39:06;;;;;;;2.07;1.10;;;23.30;51.70;;;;;;6236264;23;20711;-82
2021/10/06 10:41:53;;;;;;;1.30;1.10;;;23.20;51.70;;;;;;6263458;23;20365;-81
2021/10/06 10:44:31;;;;;;;1.57;0.90;;;23.30;51.80;;;;;;6237188;23;20381;-81
2021/10/06 10:47:00;;;;;;;1.37;1.00;;;23.30;51.90;;;;;;6237101;23;20408;-82
2021/10/06 10:49:46;;;;;;;2.07;1.30;;;23.30;52.00;;;;;;6237575;23;20404;-80
2021/10/06 10:52:15;;;;;;;2.50;1.23;;;23.30;52.00;;;;;;6263898;23;20357;-80
2021/10/06 10:54:50;;;;;;;2.37;1.10;;;23.20;52.00;;;;;;6237834;23;20907;-81
2021/10/06 10:57:25;;;;;;;1.90;1.70;;;23.30;52.10;;;;;;6237911;23;20376;-82
2021/10/06 10:59:56;;;;;;;2.03;1.30;;;23.20;52.10;;;;;;6236938;23;20430;-82
2021/10/06 11:02:28;;;;;;;2.63;1.13;;;23.20;52.10;;;;;;6264212;23;20346;-82
2021/10/06 11:04:58;;;;;;;3.03;1.30;;;23.30;52.20;;;;;;6237693;23;20369;-81
2021/10/06 11:07:26;;;;;;;1.73;1.00;;;23.20;52.20;;;;;;6238805;23;20370;-82
2021/10/06 11:10:18;;;;;;;2.40;1.23;;;23.20;52.20;;;;;;6236781;23;20774;-81
2021/10/06 11:12:54;;;;;;;1.83;1.20;;;23.20;52.20;;;;;;6237175;23;20409;-83
2021/10/06 11:15:23;;;;;;;3.70;1.50;;;23.20;52.30;;;;;;6236704;23;20480;-80
2021/10/06 11:18:24;;;;;;;2.70;1.50;;;23.20;52.40;;;;;;6237830;23;20464;-80
2021/10/06 11:21:01;;;;;;;2.57;1.30;;;23.20;52.30;;;;;;6239686;23;20440;-80
2021/10/06 11:23:42;;;;;;;2.60;1.67;;;23.20;52.40;;;;;;6237718;23;20384;-80
2021/10/06 11:26:16;;;;;;;4.27;1.53;;;23.20;52.40;;;;;;6264074;23;20373;-81
2021/10/06 11:28:53;;;;;;;2.90;1.77;;;23.20;52.40;;;;;;6236767;23;20372;-81
2021/10/06 11:31:40;;;;;;;4.20;1.50;;;23.20;52.40;;;;;;6263445;23;20360;-81
2021/10/06 11:34:15;;;;;;;3.27;1.53;;;23.20;52.40;;;;;;6263309;23;20362;-82
2021/10/06 11:36:59;;;;;;;3.60;1.60;;;23.20;52.40;;;;;;6264644;23;20357;-82
2021/10/06 11:39:27;;;;;;;2.60;1.53;;;23.20;52.40;;;;;;6208703;23;20389;-83
2021/10/06 11:41:56;;;;;;;2.00;1.17;;;23.20;52.40;;;;;;6264002;23;20706;-81
2021/10/06 11:44:31;;;;;;;4.20;1.50;;;23.20;52.40;;;;;;6236964;23;20381;-81
2021/10/06 11:46:59;;;;;;;2.37;1.43;;;23.20;52.40;;;;;;6263762;23;20370;-81
2021/10/06 11:49:33;;;;;;;4.20;1.73;;;23.20;52.40;;;;;;6236889;23;20404;-82
2021/10/06 11:52:07;;;;;;;3.80;2.30;;;23.20;52.40;;;;;;6263885;23;20433;-82
2021/10/06 11:54:38;;;;;;;4.80;2.03;;;23.20;52.40;;;;;;6264252;23;20405;-80
2021/10/06 11:57:07;;;;;;;3.23;1.50;;;23.20;52.50;;;;;;6238113;23;20383;-81
2021/10/06 11:59:34;;;;;;;4.03;1.80;;;23.20;52.50;;;;;;6236939;23;20695;-81
2021/10/06 12:02:06;;;;;;;5.00;2.03;;;23.20;52.50;;;;;;6236870;23;20385;-81
2021/10/06 12:04:39;;;;;;;2.43;1.40;;;23.20;52.50;;;;;;6263726;23;20346;-81
2021/10/06 12:07:13;;;;;;;3.20;1.93;;;23.20;52.50;;;;;;6263566;23;20440;-81
2021/10/06 12:09:47;;;;;;;6.13;2.00;;;23.20;53.10;;;;;;6262963;23;20377;-81
2021/10/06 12:12:21;;;;;;;3.20;1.43;;;23.20;52.80;;;;;;6236602;23;20405;-81
2021/10/06 12:15:03;;;;;;;3.30;1.50;;;23.20;52.60;;;;;;6235919;23;20416;-81
2021/10/06 12:17:31;;;;;;;1.67;1.37;;;23.20;52.60;;;;;;6236114;23;20362;-81
2021/10/06 12:20:08;;;;;;;4.43;1.80;;;23.20;52.60;;;;;;6264248;23;20365;-81
2021/10/06 12:22:48;;;;;;;3.10;2.10;;;23.20;52.60;;;;;;6237508;23;20733;-81
2021/10/06 12:25:25;;;;;;;2.17;1.97;;;23.20;52.70;;;;;;6236376;23;20373;-81
2021/10/06 12:28:00;;;;;;;2.47;1.40;;;23.20;52.70;;;;;;6262094;23;20369;-81
2021/10/06 12:30:28;;;;;;;4.97;1.27;;;23.20;52.70;;;;;;6236367;23;20391;-82
2021/10/06 12:33:13;;;;;;;3.00;1.50;;;23.20;52.70;;;;;;6236277;23;20392;-81
2021/10/06 12:35:48;;;;;;;2.73;1.63;;;23.20;52.70;;;;;;6263588;23;20409;-81
2021/10/06 12:38:17;;;;;;;3.43;1.83;;;23.20;52.70;;;;;;6262867;23;20349;-81
2021/10/06 12:40:51;;;;;;;3.57;1.73;;;23.20;52.70;;;;;;6235818;23;20388;-82
2021/10/06 12:43:27;;;;;;;2.30;1.80;;;23.20;52.70;;;;;;6263142;23;20395;-81
2021/10/06 12:46:15;;;;;;;3.37;1.87;;;23.20;52.70;;;;;;6236192;23;20403;-81
2021/10/06 12:48:55;;;;;;;3.20;1.50;;;23.20;52.70;;;;;;6235869;23;20373;-81
2021/10/06 12:51:24;;;;;;;2.63;1.90;;;23.20;52.80;;;;;;6262851;23;20715;-81
2021/10/06 12:54:23;;;;;;;2.97;1.70;;;23.20;52.80;;;;;;6235495;23;20392;-82
2021/10/06 12:56:54;;;;;;;4.30;1.37;;;23.20;52.80;;;;;;6227878;23;20436;-81
2021/10/06 12:59:38;;;;;;;4.50;1.50;;;23.20;52.80;;;;;;6235605;23;20462;-81
2021/10/06 13:02:09;;;;;;;2.60;1.70;;;23.20;52.80;;;;;;6236158;23;20389;-82
2021/10/06 13:04:36;;;;;;;1.60;1.00;;;23.20;52.80;;;;;;6235549;23;20365;-81
2021/10/06 13:07:22;;;;;;;1.90;1.60;;;23.20;52.80;;;;;;6236060;23;20380;-82
2021/10/06 13:09:48;;;;;;;1.60;1.30;;;23.20;52.80;;;;;;6233216;23;20866;-81
2021/10/06 13:12:14;;;;;;;2.83;1.60;;;23.20;52.80;;;;;;6235289;23;20411;-82
2021/10/06 13:14:44;;;;;;;1.97;1.20;;;23.20;52.80;;;;;;6235412;23;20182;-84
2021/10/06 13:17:56;;;;;;;3.33;1.50;;;23.20;52.80;;;;;;6240161;23;20198;-84
2021/10/06 13:20:31;;;;;;;3.43;1.63;;;23.20;52.80;;;;;;6261036;23;20373;-84
2021/10/06 13:23:08;;;;;;;1.93;1.40;;;23.20;52.90;;;;;;6240023;23;20381;-84
2021/10/06 13:25:34;;;;;;;1.83;1.20;;;23.20;52.90;;;;;;6267278;23;20354;-83
2021/10/06 13:28:00;;;;;;;1.73;1.40;;;23.20;52.90;;;;;;6240309;23;20832;-83
2021/10/06 13:30:48;;;;;;;4.50;1.77;;;23.20;52.90;;;;;;6267074;23;20376;-84
2021/10/06 13:33:18;;;;;;;1.93;1.07;;;23.20;52.80;;;;;;6265117;23;20150;-84
2021/10/06 13:35:43;;;;;;;2.33;1.07;;;23.20;52.90;;;;;;6263979;23;20439;-84